A. Steve Crowley — WDF3329 — position and weather

sailwx.info

Track history (hours):
 
Tides and Currents Weather Stations Pressure Air Temp Water Temp Dewpoint Dewpoint Depression Visibility Wind Speed Wind Dir Waves Ship Positions

A. Steve Crowley

Owner: Marquette Transportation Co. LLC, Paducah, KY. More information available from US FCC via Universal Licensing System and Coast Guard Vessel Documentation Center.

Last reported at 2018-Feb-18 22:48 UTC. Time now 2018-Feb-22 21:01 UTC.
Position N 31°58' W 091°11'.

Length 50 m; draft 2.7 m.

Type: Towing. MMSI: 367438630.

Date/timePositionNaut miles runAvg speedWind from/ knotsBaromVisibWave heightAir tempDewpointWater temp
2018-Feb-18 22:48N 31°58' W 091°11'4 8.5
2018-Feb-18 22:22N 31°59' W 091°07'3 8.8
2018-Feb-18 22:00N 32°01' W 091°04'5 7.6
2018-Feb-18 21:24N 32°06' W 091°06'2 4.6
2018-Feb-18 21:00N 32°08' W 091°06'4 8.3
2018-Feb-18 20:30N 32°07' W 091°01'4 8.6
2018-Feb-18 20:00N 32°11' W 090°60'4 9.0
2018-Feb-18 19:30N 32°16' W 090°58'4 8.9
2018-Feb-18 19:00N 32°19' W 090°54'2 3.0
2018-Feb-18 18:30N 32°20' W 090°54'3 6.7
2018-Feb-18 18:00N 32°21' W 090°58'3 6.6
2018-Feb-18 17:30N 32°24' W 090°59'3 7.0
2018-Feb-18 17:00N 32°26' W 091°03'3 6.1
2018-Feb-18 16:30N 32°28' W 091°06'4 8.2
2018-Feb-18 16:00N 32°32' W 091°06'5 8.4
2018-Feb-18 15:22N 32°36' W 091°09'  
Track history (hours):
 
Tides and Currents Weather Stations Pressure Air Temp Water Temp Dewpoint Dewpoint Depression Visibility Wind Speed Wind Dir Waves Ship Positions

A. Steve Crowley

Owner: Marquette Transportation Co. LLC, Paducah, KY. More information available from US FCC via Universal Licensing System and Coast Guard Vessel Documentation Center.

Last reported at 2018-Feb-18 22:48 UTC. Time now 2018-Feb-22 21:01 UTC.
Position N 31°58' W 091°11'.

Length 50 m; draft 2.7 m.

Type: Towing. MMSI: 367438630.

Date/timePositionNaut miles runAvg speedWind from/ knotsBaromVisibWave heightAir tempDewpointWater temp
2018-Feb-18 22:48N 31°58' W 091°11'4 8.5
2018-Feb-18 22:22N 31°59' W 091°07'3 8.8
2018-Feb-18 22:00N 32°01' W 091°04'5 7.6
2018-Feb-18 21:24N 32°06' W 091°06'2 4.6
2018-Feb-18 21:00N 32°08' W 091°06'4 8.3
2018-Feb-18 20:30N 32°07' W 091°01'4 8.6
2018-Feb-18 20:00N 32°11' W 090°60'4 9.0
2018-Feb-18 19:30N 32°16' W 090°58'4 8.9
2018-Feb-18 19:00N 32°19' W 090°54'2 3.0
2018-Feb-18 18:30N 32°20' W 090°54'3 6.7
2018-Feb-18 18:00N 32°21' W 090°58'3 6.6
2018-Feb-18 17:30N 32°24' W 090°59'3 7.0
2018-Feb-18 17:00N 32°26' W 091°03'3 6.1
2018-Feb-18 16:30N 32°28' W 091°06'4 8.2
2018-Feb-18 16:00N 32°32' W 091°06'5 8.4
2018-Feb-18 15:22N 32°36' W 091°09'  

Dump ship's entire track history